Terminal Aerodrome Forecast
Issued by NWS

Home | Current Version | Previous Version | Text Only | Print | Product List | Glossary On
Versions: 1 2 3 4 5 6 7 8 9 10 11 12 13 14 15 16 17 18 19 20 21 22 23 24 25 26 27 28 29 30 31 32
479
FTUS43 KDTX 241415 AAA
TAFDET
TAF AMD
KDET 241415Z 2414/2512 VRB04KT 2SM BR OVC004
     FM241500 30007KT 6SM BR BKN006 OVC015
      TEMPO 2416/2418 4SM -SHRA OVC004
     FM241800 32010KT P6SM OVC015
     FM250200 27005KT 3SM BR OVC008
     FM251000 VRB03KT 1SM BR OVC004=

USA.gov is the U.S. government's official web portal to all federal, state and local government web resources and services.